This is the latest recevied weather packets stored in our database for station/object SQ9RHX-11. If no packets are shown the sender has not sent any weather packets the latest 10 day(s).
| Time | Temp. | Humidity | Pressure | Rain* | Wind** | Luminosity | Snow |
|---|---|---|---|---|---|---|---|
| 1777622534 | 17.78° C | 40% | 1028.7 hPa | - | - | - | - |
| 1777620734 | 17.78° C | 42% | 1028.8 hPa | - | - | - | - |
| 1777618934 | 16.11° C | 45% | 1028.9 hPa | - | - | - | - |
| 1777617134 | 15° C | 49% | 1029.1 hPa | - | - | - | - |
| 1777615333 | 13.33° C | 53% | 1029 hPa | - | - | - | - |
| 1777613533 | 11.67° C | 59% | 1029 hPa | - | - | - | - |
| 1777611733 | 8.89° C | 65% | 1028.9 hPa | - | - | - | - |
| 1777609931 | 6.11° C | 69% | 1028.9 hPa | - | - | - | - |
| 1777608131 | 5° C | 70% | 1028.8 hPa | - | - | - | - |
| 1777606332 | 4.44° C | 69% | 1028.7 hPa | - | - | - | - |
| 1777604532 | 4.44° C | 68% | 1028.7 hPa | - | - | - | - |
| 1777602732 | 5° C | 67% | 1028.7 hPa | - | - | - | - |
| 1777600932 | 5.56° C | 66% | 1028.8 hPa | - | - | - | - |
| 1777599133 | 6.11° C | 66% | 1028.8 hPa | - | - | - | - |
| 1777597333 | 6.67° C | 65% | 1028.8 hPa | - | - | - | - |
| 1777595534 | 7.22° C | 63% | 1028.8 hPa | - | - | - | - |
| 1777593736 | 7.78° C | 62% | 1028.9 hPa | - | - | - | - |
| 1777591935 | 8.33° C | 61% | 1028.9 hPa | - | - | - | - |
| 1777590136 | 8.33° C | 61% | 1029 hPa | - | - | - | - |
| 1777588337 | 8.89° C | 58% | 1029.1 hPa | - | - | - | - |
| 1777586536 | 8.89° C | 57% | 1029 hPa | - | - | - | - |
| 1777584738 | 8.89° C | 57% | 1029.2 hPa | - | - | - | - |
| 1777582938 | 8.89° C | 56% | 1029.1 hPa | - | - | - | - |
| 1777581139 | 8.89° C | 55% | 1029.1 hPa | - | - | - | - |
| 1777579339 | 8.89° C | 53% | 1029.2 hPa | - | - | - | - |
* Rain since midnight (hover to see other rain measurements)
** Current wind speed in m/s (hover to see current wind gust speed)